Time;durP1;ratioP1;P1;durP2;ratioP2;P2;SDS_P1;SDS_P2;PMS_P1;PMS_P2;Temp;Humidity;BMP_temperature;BMP_pressure;BME280_temperature;BME280_humidity;BME280_pressure;Samples;Min_cycle;Max_cycle;Signal;HPM_P1;HPM_P2
2023/01/22 00:01:14;;;;;;;38.53;23.40;;;8.80;99.90;;;8.77;73.27;94765.59;5046935;28;20601;-60
2023/01/22 00:03:41;;;;;;;28.57;16.07;;;8.80;99.90;;;8.75;73.38;94773.59;5047404;28;20482;-59
2023/01/22 00:06:09;;;;;;;16.83;11.23;;;8.80;99.90;;;8.72;72.68;94778.25;5047563;28;20452;-58
2023/01/22 00:08:36;;;;;;;22.17;13.90;;;8.70;99.90;;;8.66;73.15;94789.25;5043353;28;20467;-57
2023/01/22 00:11:05;;;;;;;23.57;13.57;;;8.70;99.90;;;8.62;73.19;94786.06;5047146;28;20463;-59
2023/01/22 00:13:33;;;;;;;19.47;13.17;;;8.60;99.90;;;8.63;73.87;94773.78;5047564;28;21011;-59
2023/01/22 00:16:01;;;;;;;22.87;15.77;;;8.60;99.90;;;8.65;74.15;94793.66;5047323;28;20444;-57
2023/01/22 00:18:28;;;;;;;20.77;13.63;;;8.60;99.90;;;8.66;74.26;94779.59;5047477;28;20483;-57
2023/01/22 00:20:55;;;;;;;27.97;13.57;;;8.60;99.90;;;8.68;74.26;94755.88;5047275;28;20487;-60
2023/01/22 00:23:23;;;;;;;22.13;13.60;;;8.70;99.90;;;8.71;74.43;94763.50;5047126;28;20471;-55
2023/01/22 00:25:50;;;;;;;24.87;16.03;;;8.70;99.90;;;8.72;74.52;94767.75;5045731;28;20909;-58
2023/01/22 00:28:19;;;;;;;27.20;18.33;;;8.70;99.90;;;8.73;74.22;94772.03;5042745;28;20495;-56
2023/01/22 00:30:46;;;;;;;26.90;19.60;;;8.70;99.90;;;8.75;74.57;94767.50;5041993;28;20824;-56
2023/01/22 00:33:13;;;;;;;31.40;18.30;;;8.70;99.90;;;8.75;74.43;94778.81;5046950;28;20480;-60
2023/01/22 00:35:41;;;;;;;30.43;18.67;;;8.80;99.90;;;8.76;74.31;94779.66;5046555;28;20451;-58
2023/01/22 00:38:08;;;;;;;33.80;20.27;;;8.80;99.90;;;8.82;75.21;94786.19;5047058;28;20494;-58
2023/01/22 00:40:35;;;;;;;30.80;18.80;;;8.80;99.90;;;8.86;75.23;94783.16;5046350;28;20462;-56
2023/01/22 00:43:02;;;;;;;23.00;15.37;;;8.90;99.90;;;8.89;74.81;94785.50;5046207;28;20510;-59
2023/01/22 00:45:32;;;;;;;22.87;17.53;;;8.90;99.90;;;8.92;74.75;94784.41;5045198;28;20575;-56
2023/01/22 00:48:00;;;;;;;31.40;17.70;;;8.90;99.90;;;8.96;74.87;94794.50;5046403;28;20471;-56
2023/01/22 00:50:27;;;;;;;23.67;15.63;;;9.00;99.90;;;9.01;75.20;94791.47;5041028;28;20509;-57
2023/01/22 00:52:54;;;;;;;25.77;16.20;;;9.00;99.90;;;9.03;75.38;94780.84;5042673;28;20475;-56
2023/01/22 00:55:22;;;;;;;19.23;13.17;;;9.00;99.90;;;9.06;74.61;94793.72;5042909;28;20558;-56
2023/01/22 00:57:49;;;;;;;18.57;12.90;;;9.00;99.90;;;9.07;74.90;94811.13;5044939;28;20472;-59
2023/01/22 01:00:17;;;;;;;17.70;12.43;;;9.10;99.90;;;9.08;74.70;94804.91;5044761;28;20468;-58
2023/01/22 01:05:30;;;;;;;21.47;13.60;;;9.00;99.90;;;9.11;74.85;94805.47;5044534;28;20447;-57
2023/01/22 01:07:58;;;;;;;19.67;12.43;;;9.10;99.90;;;9.14;75.06;94820.13;5042253;28;20832;-57
2023/01/22 01:10:25;;;;;;;17.50;11.70;;;9.10;99.90;;;9.16;75.13;94818.19;5038020;28;20565;-57
2023/01/22 01:12:52;;;;;;;20.40;11.80;;;9.20;99.90;;;9.14;74.68;94805.22;5045098;28;20475;-55
2023/01/22 01:15:20;;;;;;;17.07;12.43;;;9.10;99.90;;;9.14;74.71;94825.38;5044781;28;20566;-58
2023/01/22 01:17:48;;;;;;;17.90;11.77;;;9.10;99.90;;;9.13;74.72;94831.59;5045654;28;20480;-59
2023/01/22 01:20:16;;;;;;;19.30;12.83;;;9.10;99.90;;;9.13;74.68;94839.47;5044288;28;20554;-57
2023/01/22 01:22:43;;;;;;;21.20;12.53;;;9.10;99.90;;;9.13;74.71;94842.06;5044702;28;20506;-56
2023/01/22 01:25:10;;;;;;;18.87;13.57;;;9.10;99.90;;;9.11;74.58;94834.34;5040998;28;20506;-59
2023/01/22 01:27:38;;;;;;;18.53;12.27;;;9.10;99.90;;;9.12;74.56;94836.00;5041937;28;20482;-59
2023/01/22 01:30:07;;;;;;;20.40;12.90;;;9.10;99.90;;;9.17;74.52;94848.75;5044863;28;20467;-60
2023/01/22 01:32:34;;;;;;;19.00;13.73;;;9.10;99.90;;;9.18;75.44;94857.44;5044630;28;20468;-58
2023/01/22 01:35:03;;;;;;;18.27;12.57;;;9.10;99.90;;;9.19;75.00;94865.16;5043759;28;20463;-56
2023/01/22 01:37:30;;;;;;;21.80;13.33;;;9.20;99.90;;;9.20;74.75;94871.25;5042268;28;20881;-59
2023/01/22 01:39:57;;;;;;;20.80;14.20;;;9.20;99.90;;;9.20;74.80;94856.34;5043428;28;20536;-56
2023/01/22 01:42:27;;;;;;;20.27;13.13;;;9.20;99.90;;;9.20;74.97;94860.75;5043340;28;20499;-56
2023/01/22 01:45:27;;;;;;;18.70;12.57;;;9.20;99.90;;;9.22;74.90;94862.28;5044226;28;20562;-56
2023/01/22 01:48:07;;;;;;;18.27;12.10;;;9.20;99.90;;;9.26;75.35;94853.16;5045991;28;20471;-60
2023/01/22 01:50:35;;;;;;;20.67;13.33;;;9.30;99.90;;;9.28;75.37;94869.63;5045523;28;20444;-58
2023/01/22 01:53:02;;;;;;;21.67;13.60;;;9.30;99.90;;;9.29;75.06;94857.31;5045800;28;21101;-59
2023/01/22 01:55:31;;;;;;;16.83;13.10;;;9.30;99.90;;;9.27;75.10;94857.47;5045419;28;20960;-58
2023/01/22 01:58:00;;;;;;;19.90;13.30;;;9.30;99.90;;;9.28;75.15;94860.91;5045840;28;20495;-60
2023/01/22 02:00:28;;;;;;;23.10;13.77;;;9.30;99.90;;;9.28;75.25;94853.88;5045617;28;20926;-58
2023/01/22 02:02:56;;;;;;;23.70;14.20;;;9.30;99.90;;;9.30;75.46;94854.56;5045691;28;21007;-56
2023/01/22 02:05:24;;;;;;;24.27;16.20;;;9.30;99.90;;;9.34;75.17;94847.25;5044535;28;20491;-56
2023/01/22 02:07:52;;;;;;;23.50;13.40;;;9.30;99.90;;;9.37;75.11;94859.28;5043879;28;20472;-55
2023/01/22 02:10:20;;;;;;;25.83;14.30;;;9.40;99.90;;;9.38;75.37;94850.47;5042184;28;20470;-57
2023/01/22 02:12:47;;;;;;;20.10;13.87;;;9.30;99.90;;;9.36;74.96;94844.50;5044998;28;20472;-60
2023/01/22 02:15:14;;;;;;;18.27;13.77;;;9.40;99.90;;;9.35;74.70;94843.69;5044176;28;20533;-57
2023/01/22 02:17:41;;;;;;;21.33;13.43;;;9.30;99.90;;;9.31;74.93;94837.88;5044001;28;20533;-57
2023/01/22 02:20:11;;;;;;;23.20;15.07;;;9.30;99.90;;;9.30;74.98;94851.94;5044251;28;20467;-60
2023/01/22 02:22:39;;;;;;;19.17;13.07;;;9.30;99.90;;;9.28;74.71;94853.88;5044305;28;20507;-59
2023/01/22 02:25:07;;;;;;;27.83;15.73;;;9.30;99.90;;;9.27;74.75;94839.09;5042966;28;21013;-57
2023/01/22 02:27:35;;;;;;;23.33;14.60;;;9.30;99.90;;;9.24;74.66;94846.41;5044425;28;20463;-56
2023/01/22 02:30:02;;;;;;;22.90;14.97;;;9.30;99.90;;;9.19;75.57;94841.56;5044371;28;20451;-61
2023/01/22 02:32:29;;;;;;;23.00;14.03;;;9.20;99.90;;;9.14;75.58;94836.69;5045173;28;20448;-60
2023/01/22 02:34:56;;;;;;;22.53;14.53;;;9.20;99.90;;;9.14;75.50;94838.50;5045296;28;20463;-58
2023/01/22 02:37:24;;;;;;;21.00;14.80;;;9.20;99.90;;;9.17;75.49;94850.50;5045322;28;20677;-56
2023/01/22 02:39:52;;;;;;;22.17;13.90;;;9.10;99.90;;;9.17;75.15;94855.75;5045547;28;20521;-58
2023/01/22 02:42:19;;;;;;;17.90;13.13;;;9.20;99.90;;;9.14;75.32;94851.63;5045313;28;20541;-57
2023/01/22 02:44:48;;;;;;;15.90;11.80;;;9.10;99.90;;;9.15;75.16;94853.25;5046149;28;20455;-58
2023/01/22 02:47:16;;;;;;;16.30;11.20;;;9.10;99.90;;;9.17;75.54;94848.75;5045025;28;20905;-56
2023/01/22 02:49:43;;;;;;;22.00;11.83;;;9.10;99.90;;;9.17;75.27;94848.75;5045398;28;20448;-61
2023/01/22 02:52:10;;;;;;;15.53;10.43;;;9.10;99.90;;;9.18;75.07;94847.75;5045799;28;20459;-60
2023/01/22 02:54:38;;;;;;;16.70;11.53;;;9.10;99.90;;;9.20;75.27;94866.84;5044826;28;20474;-57
2023/01/22 02:57:06;;;;;;;17.60;9.83;;;9.10;99.90;;;9.19;74.70;94854.66;5042217;28;20491;-56
2023/01/22 02:59:34;;;;;;;13.87;9.27;;;9.10;99.90;;;9.17;74.61;94846.13;5044088;28;20491;-56
2023/01/22 03:02:02;;;;;;;16.70;9.60;;;9.20;99.90;;;9.14;73.93;94859.50;5038805;28;21011;-56
2023/01/22 03:04:29;;;;;;;11.57;8.40;;;9.10;99.90;;;9.11;73.96;94851.88;5044198;28;20472;-56
2023/01/22 03:06:56;;;;;;;15.40;8.07;;;9.10;99.90;;;9.07;74.00;94855.72;5046139;28;20486;-60
2023/01/22 03:09:23;;;;;;;11.97;8.00;;;9.10;99.90;;;9.02;74.16;94856.13;5046841;28;20514;-60
2023/01/22 03:11:51;;;;;;;8.60;6.63;;;9.00;99.90;;;9.00;73.87;94844.06;5046687;28;20916;-60
2023/01/22 03:22:33;;;;;;;9.73;8.30;;;8.90;99.90;;;8.90;74.48;94852.72;5047093;28;20510;-60
2023/01/22 03:25:01;;;;;;;27.77;16.27;;;8.90;99.90;;;8.91;74.81;94845.72;5043364;28;20475;-57
2023/01/22 03:27:29;;;;;;;42.80;19.20;;;8.90;99.90;;;8.93;74.79;94855.09;5047057;28;20460;-57
2023/01/22 03:29:58;;;;;;;14.50;9.50;;;8.90;99.90;;;8.94;75.07;94853.31;5043357;28;20460;-56
2023/01/22 03:32:25;;;;;;;26.33;12.80;;;9.00;99.90;;;8.94;74.80;94853.31;5047025;28;20891;-56
2023/01/22 03:34:53;;;;;;;17.93;12.90;;;8.90;99.90;;;8.92;74.50;94848.22;5047156;28;20802;-57
2023/01/22 03:37:20;;;;;;;16.83;11.60;;;9.00;99.90;;;8.92;74.79;94853.44;5047454;28;20563;-58
2023/01/22 03:39:48;;;;;;;18.33;12.67;;;8.90;99.90;;;8.89;74.86;94858.97;5046717;28;20452;-56
2023/01/22 03:42:15;;;;;;;19.70;12.20;;;8.90;99.90;;;8.88;74.47;94859.91;5044548;28;20504;-59
2023/01/22 03:44:42;;;;;;;17.10;12.30;;;8.90;99.90;;;8.86;74.64;94868.84;5047013;28;20833;-59
2023/01/22 03:47:11;;;;;;;16.90;12.63;;;8.90;99.90;;;8.83;74.49;94866.50;5046097;28;20460;-58
2023/01/22 03:49:38;;;;;;;18.87;13.10;;;8.90;99.90;;;8.80;74.97;94870.22;5045952;28;20478;-56
2023/01/22 03:52:05;;;;;;;21.43;12.90;;;8.80;99.90;;;8.78;74.88;94865.09;5046788;28;20459;-60
2023/01/22 03:54:33;;;;;;;18.83;11.70;;;8.80;99.90;;;8.76;74.95;94874.88;5047489;28;20479;-61
2023/01/22 03:57:00;;;;;;;23.10;13.17;;;8.80;99.90;;;8.73;74.84;94869.06;5045844;28;20464;-60
2023/01/22 03:59:27;;;;;;;23.17;13.40;;;8.80;99.90;;;8.69;74.77;94865.03;5045572;28;20491;-58
2023/01/22 04:01:54;;;;;;;16.30;12.47;;;8.70;99.90;;;8.64;74.94;94869.84;5045197;28;20996;-61
2023/01/22 04:04:23;;;;;;;14.90;11.13;;;8.70;99.90;;;8.60;74.68;94874.50;5042915;28;20472;-57
2023/01/22 04:06:50;;;;;;;13.63;10.07;;;8.60;99.90;;;8.56;74.36;94884.41;5045824;28;20456;-60
2023/01/22 04:09:18;;;;;;;11.73;8.87;;;8.60;99.90;;;8.51;74.98;94886.59;5046993;28;20475;-59
2023/01/22 04:11:45;;;;;;;10.07;7.87;;;8.50;99.90;;;8.46;74.49;94888.75;5046088;28;20475;-57
2023/01/22 04:14:12;;;;;;;13.87;7.73;;;8.50;99.90;;;8.42;74.68;94890.75;5046021;28;21077;-59
2023/01/22 04:16:40;;;;;;;8.20;7.27;;;8.40;99.90;;;8.42;75.19;94896.00;5044996;28;20484;-58
2023/01/22 04:19:08;;;;;;;15.20;8.00;;;8.40;99.90;;;8.42;75.02;94892.53;5045502;28;20491;-55
2023/01/22 04:21:37;;;;;;;9.57;7.63;;;8.40;99.90;;;8.43;74.98;94899.47;5045510;28;20522;-62
2023/01/22 04:24:05;;;;;;;22.87;8.90;;;8.40;99.90;;;8.45;75.41;94897.56;5045648;28;20479;-57
2023/01/22 04:26:32;;;;;;;13.27;9.30;;;8.50;99.90;;;8.49;75.32;94901.59;5047708;28;20456;-60
2023/01/22 04:28:59;;;;;;;9.80;7.27;;;8.50;99.90;;;8.55;75.72;94908.13;5045766;28;20471;-57
2023/01/22 04:31:27;;;;;;;11.63;7.60;;;8.50;99.90;;;8.57;75.26;94906.22;5047096;28;20451;-60
2023/01/22 04:33:54;;;;;;;10.57;7.60;;;8.60;99.90;;;8.60;76.04;94906.78;5043205;28;20502;-56
2023/01/22 04:36:21;;;;;;;8.77;7.13;;;8.60;99.90;;;8.63;75.96;94916.22;5045756;28;20464;-56
2023/01/22 04:38:50;;;;;;;12.23;8.50;;;8.70;99.90;;;8.66;75.24;94930.81;5046207;28;20479;-60
2023/01/22 04:41:17;;;;;;;12.40;8.60;;;8.60;99.90;;;8.64;74.90;94933.56;5045753;28;20460;-57
2023/01/22 04:43:44;;;;;;;13.33;8.80;;;8.70;99.90;;;8.61;74.65;94933.81;5041465;28;20545;-57
2023/01/22 04:46:11;;;;;;;7.33;6.60;;;8.60;99.90;;;8.58;74.00;94944.56;5044913;28;20557;-57
2023/01/22 04:48:39;;;;;;;10.60;8.10;;;8.60;99.90;;;8.54;74.28;94938.75;5045945;28;20471;-62
2023/01/22 04:51:06;;;;;;;13.50;7.93;;;8.60;99.90;;;8.51;73.79;94938.19;5045478;28;20545;-55
2023/01/22 04:53:33;;;;;;;16.17;8.67;;;8.50;99.90;;;8.45;74.01;94950.00;5043885;28;20541;-60
2023/01/22 04:56:02;;;;;;;13.10;7.73;;;8.50;99.90;;;8.45;73.57;94952.63;5044756;28;20594;-61
2023/01/22 04:58:29;;;;;;;11.90;8.77;;;8.50;99.90;;;8.42;73.75;94955.44;5043849;28;20852;-57
2023/01/22 05:00:57;;;;;;;13.73;7.60;;;8.40;99.90;;;8.39;73.78;94959.13;5044363;28;20463;-58
2023/01/22 05:03:24;;;;;;;9.87;7.93;;;8.40;99.90;;;8.38;73.71;94964.50;5044798;28;20565;-60
2023/01/22 05:05:51;;;;;;;11.97;8.60;;;8.40;99.90;;;8.37;74.00;94978.59;5044530;28;20459;-60
2023/01/22 05:08:18;;;;;;;16.93;9.47;;;8.40;99.90;;;8.34;74.13;94974.41;5039967;28;20490;-61
2023/01/22 05:10:46;;;;;;;19.93;9.30;;;8.40;99.90;;;8.33;74.16;94983.22;5043708;28;20447;-60
2023/01/22 05:13:14;;;;;;;16.43;8.60;;;8.40;99.90;;;8.34;74.25;94990.13;5042870;28;20485;-60
2023/01/22 05:15:41;;;;;;;14.20;8.70;;;8.40;99.90;;;8.34;74.14;94984.06;5044204;28;20524;-58
2023/01/22 05:18:09;;;;;;;11.03;8.00;;;8.30;99.90;;;8.35;74.10;94986.56;5044290;28;20480;-57
2023/01/22 05:20:36;;;;;;;14.07;8.60;;;8.30;99.90;;;8.36;74.38;94997.88;5044334;28;20839;-60
2023/01/22 05:23:03;;;;;;;10.87;8.03;;;8.40;99.90;;;8.37;73.86;95007.41;5043256;28;21007;-60
2023/01/22 05:25:30;;;;;;;9.47;7.23;;;8.40;99.90;;;8.36;74.17;95001.31;5044391;28;20456;-56
2023/01/22 05:27:58;;;;;;;12.00;6.50;;;8.40;99.90;;;8.35;74.01;95006.69;5040624;28;20479;-61
2023/01/22 05:30:26;;;;;;;7.40;5.60;;;8.40;99.90;;;8.33;73.56;95005.97;5044226;28;20479;-60
2023/01/22 05:32:56;;;;;;;8.07;6.67;;;8.40;99.90;;;8.31;73.47;95013.16;5040356;28;20479;-58
2023/01/22 05:35:23;;;;;;;8.63;6.90;;;8.30;99.90;;;8.30;73.70;95014.91;5044237;28;21026;-63
2023/01/22 05:37:50;;;;;;;9.87;7.17;;;8.30;99.90;;;8.30;73.34;95021.94;5039641;28;21094;-59
2023/01/22 05:40:18;;;;;;;7.00;5.80;;;8.30;99.90;;;8.30;73.86;95035.88;5043203;28;21025;-57
2023/01/22 05:42:45;;;;;;;9.03;5.83;;;8.30;99.90;;;8.31;73.79;95041.97;5041867;28;20487;-61
2023/01/22 05:45:12;;;;;;;10.60;6.60;;;8.30;99.90;;;8.32;74.05;95041.00;5042638;28;21082;-56
2023/01/22 05:47:41;;;;;;;8.20;7.40;;;8.40;99.90;;;8.33;73.80;95046.13;5042794;28;20530;-58
2023/01/22 05:50:10;;;;;;;7.50;6.23;;;8.40;99.90;;;8.34;73.49;95050.41;5042363;28;20460;-57
2023/01/22 05:52:37;;;;;;;12.80;7.40;;;8.40;99.90;;;8.33;73.58;95045.28;5044521;28;20471;-61
2023/01/22 05:55:06;;;;;;;10.97;7.00;;;8.40;99.90;;;8.33;73.73;95050.53;5041471;28;21473;-60
2023/01/22 05:57:34;;;;;;;6.70;6.03;;;8.40;99.90;;;8.34;73.40;95049.59;5042494;28;20839;-60
2023/01/22 06:00:01;;;;;;;8.03;6.23;;;8.30;99.90;;;8.33;73.54;95059.22;5043187;28;20486;-61
2023/01/22 06:02:29;;;;;;;12.50;6.73;;;8.40;99.90;;;8.29;73.06;95059.59;5038311;28;20559;-60
2023/01/22 06:04:57;;;;;;;14.60;8.87;;;8.30;99.90;;;8.26;73.06;95069.38;5044255;28;20534;-57
2023/01/22 06:07:25;;;;;;;11.73;7.73;;;8.30;99.90;;;8.25;73.83;95075.53;5045013;28;20843;-57
2023/01/22 06:09:52;;;;;;;8.67;7.10;;;8.30;99.90;;;8.28;73.76;95074.47;5044184;28;21068;-55
2023/01/22 06:12:19;;;;;;;12.63;8.23;;;8.30;99.90;;;8.26;73.36;95073.78;5045155;28;20464;-57
2023/01/22 06:14:46;;;;;;;14.73;9.30;;;8.30;99.90;;;8.25;73.11;95078.16;5045022;28;20521;-60
2023/01/22 06:17:14;;;;;;;16.53;11.00;;;8.30;99.90;;;8.29;73.84;95077.94;5043701;28;21030;-63
2023/01/22 06:19:41;;;;;;;17.53;10.93;;;8.30;99.90;;;8.32;73.69;95080.31;5045077;28;20464;-61
2023/01/22 06:22:09;;;;;;;18.07;11.43;;;8.40;99.90;;;8.36;73.70;95085.19;5044209;28;20552;-61
2023/01/22 06:24:37;;;;;;;15.67;11.20;;;8.40;99.90;;;8.39;73.50;95089.38;5041767;28;20886;-58
2023/01/22 06:27:04;;;;;;;17.70;12.33;;;8.40;99.90;;;8.41;73.43;95095.31;5043827;28;20459;-58
2023/01/22 06:29:31;;;;;;;18.23;11.20;;;8.50;99.90;;;8.46;73.36;95095.81;5043843;28;20480;-61
2023/01/22 06:31:59;;;;;;;21.13;12.20;;;8.50;99.90;;;8.51;73.86;95101.53;5041849;28;20463;-59
2023/01/22 06:34:26;;;;;;;19.50;11.17;;;8.50;99.90;;;8.55;73.64;95100.34;5034746;28;20510;-61
2023/01/22 06:36:53;;;;;;;16.20;11.67;;;8.50;99.90;;;8.60;73.81;95107.84;5040806;28;20852;-60
2023/01/22 06:39:22;;;;;;;19.97;11.90;;;8.60;99.90;;;8.65;73.22;95100.44;5044079;28;20479;-57
2023/01/22 06:41:50;;;;;;;17.77;13.03;;;8.60;99.90;;;8.70;73.52;95102.69;5040127;28;20467;-58
2023/01/22 06:44:17;;;;;;;15.77;11.10;;;8.70;99.90;;;8.92;73.66;95109.66;5047592;28;20500;-60
2023/01/22 06:46:45;;;;;;;21.03;12.13;;;8.90;99.90;;;9.35;73.67;95121.09;5047567;28;21091;-61
2023/01/22 06:49:13;;;;;;;16.77;12.00;;;9.20;99.90;;;9.88;72.99;95118.41;5046021;28;20498;-56
2023/01/22 06:51:40;;;;;;;19.67;12.10;;;9.80;99.90;;;10.47;71.80;95116.09;5046683;28;21061;-58
2023/01/22 06:54:11;;;;;;;16.20;10.93;;;10.40;99.90;;;11.06;70.41;95120.53;5048264;28;20480;-57
2023/01/22 06:56:39;;;;;;;20.00;11.00;;;10.90;99.90;;;11.59;69.14;95123.75;5046768;28;20451;-59
2023/01/22 06:59:07;;;;;;;22.30;12.27;;;11.50;99.90;;;12.14;67.90;95123.09;5048225;28;20487;-56
2023/01/22 07:01:34;;;;;;;16.60;11.87;;;12.00;99.90;;;12.65;67.09;95126.25;5044459;28;20455;-57
2023/01/22 07:04:01;;;;;;;13.60;11.43;;;12.50;99.90;;;13.16;65.73;95131.94;5048298;28;21004;-60
2023/01/22 07:06:28;;;;;;;14.50;10.77;;;13.10;99.90;;;13.60;65.25;95135.53;5046185;28;20459;-60
2023/01/22 07:08:56;;;;;;;13.80;10.30;;;13.50;99.90;;;14.07;64.53;95131.78;5042130;28;20471;-58
2023/01/22 07:11:23;;;;;;;15.30;10.40;;;14.00;99.90;;;14.53;62.79;95134.19;5046316;28;20505;-60
2023/01/22 07:13:52;;;;;;;15.53;11.63;;;14.50;99.90;;;14.89;61.28;95128.75;5045818;28;20479;-59
2023/01/22 07:16:19;;;;;;;13.50;10.93;;;14.90;99.60;;;15.20;61.51;95129.00;5046258;28;20452;-59
2023/01/22 07:18:46;;;;;;;15.50;11.30;;;15.20;99.90;;;15.59;60.33;95128.41;5047477;28;20558;-59
2023/01/22 07:21:14;;;;;;;14.13;10.10;;;15.70;99.20;;;16.06;60.23;95128.78;5046598;28;20444;-60
2023/01/22 07:23:41;;;;;;;17.20;11.37;;;16.20;99.20;;;16.52;58.72;95138.84;5046519;28;21310;-66
2023/01/22 07:26:08;;;;;;;16.40;10.83;;;16.70;97.70;;;16.94;57.39;95138.53;5044357;28;20455;-56
2023/01/22 07:28:36;;;;;;;14.47;11.07;;;17.20;96.60;;;17.31;57.20;95134.38;5046314;28;20472;-57
2023/01/22 07:31:06;;;;;;;14.47;11.13;;;17.60;96.00;;;17.66;56.00;95137.50;5043611;28;20537;-62
2023/01/22 07:33:33;;;;;;;15.57;11.47;;;17.90;94.80;;;17.94;54.71;95133.47;5040348;28;20475;-62
2023/01/22 07:36:01;;;;;;;21.33;13.80;;;18.10;93.00;;;18.10;53.78;95142.16;5045188;28;20701;-58
2023/01/22 07:38:28;;;;;;;20.40;14.80;;;18.30;92.60;;;18.24;53.37;95137.06;5046189;28;20492;-58
2023/01/22 07:41:00;;;;;;;19.07;14.00;;;18.40;92.20;;;18.48;53.42;95138.63;5042818;28;20464;-59
2023/01/22 07:43:27;;;;;;;19.20;14.33;;;18.50;91.70;;;18.73;50.53;95143.69;5045438;28;20514;-59
2023/01/22 07:45:56;;;;;;;17.27;12.70;;;18.70;88.30;;;18.79;51.57;95148.28;5047636;28;20452;-59
2023/01/22 07:48:25;;;;;;;18.00;13.17;;;18.70;90.10;;;18.77;52.15;95150.31;5044118;28;20468;-57
2023/01/22 07:50:52;;;;;;;18.37;12.60;;;18.60;90.20;;;18.86;52.02;95149.25;5043722;28;20464;-58
2023/01/22 07:53:19;;;;;;;19.23;12.77;;;18.60;90.20;;;18.85;50.97;95142.25;5047546;28;20517;-61
2023/01/22 07:55:47;;;;;;;21.03;13.40;;;18.60;87.40;;;18.55;50.94;95150.22;5045640;28;20480;-58
2023/01/22 07:58:14;;;;;;;23.23;14.50;;;18.40;87.20;;;18.10;51.58;95150.13;5047373;28;20472;-57
2023/01/22 08:00:41;;;;;;;20.70;13.23;;;18.10;86.30;;;17.78;51.90;95143.22;5046606;28;20467;-57
2023/01/22 08:03:10;;;;;;;15.23;11.13;;;17.80;87.10;;;17.41;51.54;95151.94;5047126;28;20554;-55
2023/01/22 08:05:39;;;;;;;19.07;12.93;;;17.40;86.20;;;16.92;51.03;95142.41;5046396;28;20836;-60
2023/01/22 08:08:06;;;;;;;22.53;13.37;;;17.00;85.10;;;16.70;52.88;95158.03;5046799;28;20471;-60
2023/01/22 08:10:33;;;;;;;17.07;13.83;;;16.70;88.90;;;16.70;52.27;95158.03;5047071;28;20448;-59
2023/01/22 08:13:01;;;;;;;23.90;13.87;;;16.50;88.20;;;16.79;52.33;95172.97;5046355;28;20537;-57
2023/01/22 08:15:28;;;;;;;20.67;12.60;;;16.50;88.70;;;16.92;52.69;95163.66;5047692;28;20514;-60
2023/01/22 08:17:55;;;;;;;16.33;12.70;;;16.50;89.50;;;16.82;52.18;95161.13;5047047;28;20879;-60
2023/01/22 08:20:23;;;;;;;17.53;13.27;;;16.50;88.80;;;16.80;53.23;95163.97;5047012;28;21034;-61
2023/01/22 08:22:51;;;;;;;18.53;13.17;;;16.50;90.10;;;16.89;52.41;95171.97;5045770;28;20533;-60
2023/01/22 08:25:19;;;;;;;17.70;14.23;;;16.60;89.40;;;16.94;52.78;95165.13;5045219;28;20463;-61
2023/01/22 08:27:46;;;;;;;17.63;13.10;;;16.60;90.00;;;16.88;52.15;95172.94;5044843;28;20475;-61
2023/01/22 08:30:14;;;;;;;17.13;13.83;;;16.70;88.90;;;16.72;52.33;95171.97;5043841;28;20464;-58
2023/01/22 08:32:44;;;;;;;20.77;13.60;;;16.60;88.50;;;16.84;52.86;95173.25;5043752;28;20475;-57
2023/01/22 08:35:11;;;;;;;20.03;13.57;;;16.60;90.10;;;17.28;52.57;95166.63;5045057;28;20880;-58
2023/01/22 08:37:38;;;;;;;20.47;13.57;;;16.90;90.20;;;17.77;51.96;95170.00;5046323;28;20496;-58
2023/01/22 08:40:09;;;;;;;21.80;14.90;;;17.20;89.50;;;18.06;50.54;95177.28;5045769;28;20455;-58
2023/01/22 08:42:37;;;;;;;25.50;15.73;;;17.50;86.30;;;18.28;49.38;95168.47;5045953;28;20475;-59
2023/01/22 08:45:05;;;;;;;18.77;14.17;;;17.80;85.20;;;18.52;48.95;95168.41;5045643;28;20492;-57
2023/01/22 08:47:32;;;;;;;24.30;13.83;;;18.10;84.20;;;18.86;49.20;95164.44;5046282;28;20455;-60
2023/01/22 08:50:01;;;;;;;15.70;13.57;;;18.40;83.40;;;19.12;48.27;95169.28;5046985;28;20455;-57
2023/01/22 08:52:28;;;;;;;17.40;14.47;;;18.60;82.00;;;19.11;47.62;95171.09;5045767;28;21051;-61
2023/01/22 08:54:56;;;;;;;17.60;13.40;;;18.70;79.70;;;18.86;48.12;95173.25;5046209;28;20470;-62
2023/01/22 08:57:24;;;;;;;19.30;13.97;;;18.60;79.00;;;18.52;47.31;95179.06;5046102;28;20847;-60
2023/01/22 08:59:52;;;;;;;15.63;12.97;;;18.30;77.00;;;18.14;47.59;95177.25;5042638;28;20474;-61
2023/01/22 09:02:19;;;;;;;20.97;12.47;;;18.10;77.40;;;18.12;48.84;95179.25;5041727;28;20461;-58
2023/01/22 09:04:46;;;;;;;20.27;14.00;;;17.90;80.20;;;18.29;48.91;95174.59;5041770;28;20487;-58
2023/01/22 09:07:13;;;;;;;15.77;13.07;;;18.00;79.80;;;18.41;47.52;95172.34;5042409;28;20447;-58
2023/01/22 09:09:41;;;;;;;17.67;13.90;;;18.00;76.90;;;18.20;47.41;95173.88;5045839;28;20546;-60
2023/01/22 09:12:08;;;;;;;16.90;12.53;;;17.90;75.90;;;17.82;48.25;95167.66;5045712;28;20511;-60
2023/01/22 09:14:37;;;;;;;17.60;12.57;;;17.70;77.50;;;17.48;48.63;95175.00;5046069;28;20545;-60
2023/01/22 09:17:04;;;;;;;17.20;13.03;;;17.40;78.30;;;17.28;49.76;95171.94;5046421;28;20509;-61
2023/01/22 09:19:31;;;;;;;17.67;12.50;;;17.10;79.40;;;17.18;50.30;95163.34;5044430;28;20486;-56
2023/01/22 09:22:05;;;;;;;17.43;13.60;;;17.00;80.60;;;16.99;49.56;95168.09;5044708;28;20637;-58
2023/01/22 09:24:32;;;;;;;14.77;12.83;;;16.80;80.00;;;16.66;50.57;95170.81;5045515;28;20556;-57
2023/01/22 09:26:59;;;;;;;19.23;14.10;;;16.60;81.00;;;16.29;51.21;95164.25;5044613;28;20550;-61
2023/01/22 09:29:26;;;;;;;24.90;13.90;;;16.20;82.10;;;16.02;52.10;95180.50;5046037;28;20471;-57
2023/01/22 09:31:55;;;;;;;22.83;15.30;;;16.00;84.50;;;15.87;52.41;95173.22;5044452;28;20964;-60
2023/01/22 09:34:23;;;;;;;21.80;15.33;;;15.80;85.20;;;15.69;52.53;95173.34;5045330;28;20647;-61
2023/01/22 09:36:50;;;;;;;20.70;14.10;;;15.60;85.50;;;15.52;52.51;95171.66;5045611;28;20810;-57
2023/01/22 09:39:17;;;;;;;17.40;13.67;;;15.40;85.50;;;15.37;52.85;95176.78;5043320;28;20498;-57
2023/01/22 09:41:47;;;;;;;18.43;12.77;;;15.20;86.80;;;15.37;53.14;95172.28;5043564;28;20793;-59
2023/01/22 09:44:18;;;;;;;21.43;14.50;;;15.10;87.40;;;15.41;53.11;95173.63;5043953;28;20548;-57
2023/01/22 09:46:47;;;;;;;17.57;12.93;;;15.10;88.10;;;15.42;52.91;95169.97;5044458;28;20452;-61
2023/01/22 09:49:18;;;;;;;17.33;13.20;;;15.10;88.30;;;15.65;53.42;95174.66;5045815;28;20476;-61
2023/01/22 09:51:46;;;;;;;19.77;13.33;;;15.30;89.80;;;15.94;53.12;95168.91;5040434;28;20455;-60
2023/01/22 09:54:15;;;;;;;18.80;13.83;;;15.50;89.80;;;16.42;52.96;95165.56;5042174;28;20934;-57
2023/01/22 09:56:43;;;;;;;20.83;14.70;;;15.90;90.00;;;16.96;51.56;95164.94;5045681;28;20459;-58
2023/01/22 09:59:16;;;;;;;21.17;14.67;;;16.40;88.60;;;17.44;49.93;95165.69;5045257;28;20484;-61
2023/01/22 10:01:45;;;;;;;18.40;14.10;;;16.90;85.80;;;17.84;49.83;95163.78;5044664;28;20531;-58
2023/01/22 10:04:30;;;;;;;27.23;18.87;;;17.30;84.30;;;18.41;48.30;95175.00;5044486;28;20495;-56
2023/01/22 10:06:58;;;;;;;26.83;15.77;;;17.80;81.20;;;18.89;47.79;95166.72;5042073;28;20467;-57
2023/01/22 10:09:29;;;;;;;29.10;16.67;;;18.20;81.40;;;19.40;47.48;95163.28;5042433;28;20897;-58
2023/01/22 10:11:56;;;;;;;25.47;16.80;;;18.70;79.40;;;19.92;46.25;95162.19;5045768;28;20444;-60
2023/01/22 10:14:26;;;;;;;27.63;15.20;;;19.20;78.10;;;20.40;46.07;95172.28;5046125;28;20475;-57
2023/01/22 10:16:53;;;;;;;23.10;15.53;;;19.70;77.80;;;20.81;45.27;95163.56;5049666;28;20448;-57
2023/01/22 10:19:24;;;;;;;26.90;16.20;;;20.10;75.10;;;21.13;44.22;95156.75;5047975;28;20479;-60
2023/01/22 10:21:53;;;;;;;23.50;14.90;;;20.40;73.00;;;21.16;43.76;95158.19;5048692;28;20444;-59
2023/01/22 10:24:20;;;;;;;26.77;15.53;;;20.60;71.40;;;21.18;44.23;95160.66;5049028;28;20499;-61
2023/01/22 10:26:51;;;;;;;26.40;16.63;;;20.70;72.80;;;21.02;44.10;95165.34;5049242;28;20448;-58
2023/01/22 10:29:24;;;;;;;22.83;15.03;;;20.60;71.30;;;21.01;43.47;95163.69;5049259;28;20467;-60
2023/01/22 10:31:53;;;;;;;22.50;15.60;;;20.50;69.40;;;21.12;43.38;95156.94;5048561;28;20444;-57